Latest Coastal Weather Observations for Wyndham Airport

IDD60701

Issued at 4:31 am CST Monday 15 February 2016 (issued every 10 minutes, with the page automatically refreshed every 10 minutes)

About coastal observations | Map of coastal stations | Coastal observations for NT | Marine services | Other Formats
Station Details ID: 001006 Name: WYNDHAM AERO Lat: -15.51 Lon: 128.15 Height: 3.8 m
Data from the previous 72 hours. | See also: Recent months at Wyndham Airport
Date/Time
CST
Temp

°C
Wind Pressure Rain
since 9am
mm
Weather Cloud Vis
km
Sea
Height
m
Swell
Dir
 
Speed
knots
Gust
knots
hPa Trend Height
m
Period
s
Dir
15/04:30am 30.7 NW 9 11 1006.8 - 0.6 Recent precip. - - - - - -
15/04:00am 30.5 NW 9 11 1006.9 - 0.6 - - - - - - -
15/03:30am 30.5 NW 7 8 1006.8 - 0.4 - - - - - - -
15/03:00am 30.5 N 5 7 1007.1 - 0.4 - - - - - - -
15/02:30am 29.9 N 7 9 1007.2 - 0.4 - - - - - - -
15/02:00am 29.6 ENE 7 12 1008.0 - 0.4 - - - - - - -
15/01:34am 31.7 E 8 20 1008.3 - 0.0 - - - - - - -
15/01:30am 31.7 E 3 8 1007.6 - 0.0 - - - - - - -
15/01:00am 31.9 E 3 6 1007.6 - 0.0 - - - - - - -
15/12:30am 32.3 SSE 6 7 1007.8 - 0.0 - - - - - - -
15/12:00am 33.8 N 5 6 1008.1 - 0.0 - - - - - - -
 
Date/Time
CST
Temp

°C
Wind Pressure Rain
since 9am
mm
Weather Cloud Vis
km
Sea
Height
m
Swell
Dir
 
Speed
knots
Gust
knots
hPa Trend Height
m
Period
s
Dir
14/11:30pm 33.5 ENE 1 5 1008.4 - 0.0 - - - - - - -
14/11:00pm 33.3 ENE 4 6 1008.1 - 0.0 - - - - - - -
14/10:30pm 34.3 S 1 4 1008.0 - 0.0 - - - - - - -
14/10:00pm 34.8 S 4 7 1007.6 - 0.0 - - - - - - -
14/09:30pm 35.1 N 9 13 1007.0 - 0.0 - - - - - - -
14/09:00pm 35.5 N 11 16 1006.7 - 0.0 - - - - - - -
14/08:30pm 35.6 N 12 15 1006.3 - 0.0 - - - - - - -
14/08:00pm 35.6 N 13 16 1005.9 - 0.0 - - - - - - -
14/07:30pm 35.9 N 13 18 1005.6 - 0.0 - - - - - - -
14/07:00pm 37.7 N 13 18 1005.5 - 0.0 - - - - - - -
14/06:30pm 40.4 N 5 8 1004.8 - 0.0 - - - - - - -
14/06:00pm 41.1 CALM 0 6 1004.6 - 0.0 - - - - - - -
14/05:30pm 41.1 NW 7 12 1004.7 - 0.0 - - - - - - -
14/05:00pm 41.9 NNW 6 8 1004.8 - 0.0 - - - - - - -
14/04:30pm 41.7 SW 7 9 1005.0 - 0.0 - - - - - - -
14/04:00pm 42.0 WSW 6 10 1005.2 - 0.0 - - - - - - -
14/03:30pm 41.3 WSW 6 10 1005.5 - 0.0 - - - - - - -
14/03:00pm 41.5 W 7 11 1005.6 - 0.0 - - - - - - -
14/02:30pm 40.8 S 6 9 1006.0 - 0.0 - - - - - - -
14/02:00pm 40.1 W 5 12 1006.2 - 0.0 - - - - - - -
14/01:30pm 39.5 SW 6 10 1006.8 - 0.0 - - - - - - -
14/01:00pm 39.4 SW 4 11 1007.2 - 0.0 - - - - - - -
14/12:30pm 38.8 W 8 14 1007.7 - 0.0 - - - - - - -
14/12:00pm 38.1 WNW 10 15 1008.0 - 0.0 - - - - - - -
14/11:30am 37.6 W 11 15 1008.3 - 0.0 - - - - - - -
14/11:00am 37.0 WSW 11 15 1008.6 - 0.0 - - - - - - -
14/10:30am 36.3 WSW 11 14 1008.9 - 0.0 - - - - - - -
14/10:00am 35.1 WSW 10 12 1009.0 - 0.0 - - - - - - -
14/09:30am 34.7 WSW 10 13 1009.0 - 0.0 - - - - - - -
14/09:00am 33.5 W 8 10 1009.0 - 0.0 - - - - - - -
14/08:30am 32.2 WNW 6 8 1008.9 - 0.0 - - - - - - -
14/08:00am 31.0 NW 5 7 1008.7 - 0.0 - - - - - - -
14/07:30am 29.7 NW 5 6 1008.4 - 0.0 - - - - - - -
14/07:00am 28.6 NW 6 6 1008.2 - 0.0 - - - - - - -
14/06:30am 28.6 NW 6 7 1007.8 - 0.0 - - - - - - -
14/06:00am 29.0 WNW 6 6 1007.4 - 0.0 - - - - - - -
14/05:30am 28.8 WNW 4 5 1007.3 - 0.0 - - - - - - -
14/05:00am 29.4 WNW 4 5 1007.0 - 0.0 - - - - - - -
14/04:30am 29.2 NW 5 6 1006.9 - 0.0 - - - - - - -
14/04:00am 29.4 WNW 3 4 1006.8 - 0.0 - - - - - - -
14/03:30am 29.7 NNW 1 4 1006.9 - 0.0 - - - - - - -
14/03:00am 30.0 WNW 1 4 1006.9 - 0.0 - - - - - - -
14/02:30am 30.5 W 3 5 1007.1 - 0.0 - - - - - - -
14/02:00am 30.6 NW 5 6 1007.4 - 0.0 - - - - - - -
14/01:30am 31.0 NW 5 6 1007.8 - 0.0 - - - - - - -
14/01:00am 31.2 NW 1 4 1008.0 - 0.0 - - - - - - -
14/12:30am 32.0 NW 5 6 1008.4 - 0.0 - - - - - - -
14/12:00am 32.5 WSW 1 4 1008.6 - 0.0 - - - - - - -
 
Date/Time
CST
Temp

°C
Wind Pressure Rain
since 9am
mm
Weather Cloud Vis
km
Sea
Height
m
Swell
Dir
 
Speed
knots
Gust
knots
hPa Trend Height
m
Period
s
Dir
13/11:30pm 33.0 N 5 6 1008.8 - 0.0 - - - - - - -
13/11:00pm 33.7 NW 6 8 1008.9 - 0.0 - - - - - - -
13/10:30pm 33.9 WSW 6 8 1008.6 - 0.0 - - - - - - -
13/10:00pm 33.6 SSW 6 7 1008.5 - 0.0 - - - - - - -
13/09:30pm 34.3 N 4 8 1008.0 - 0.0 - - - - - - -
13/09:00pm 34.1 N 8 11 1007.7 - 0.0 - - - - - - -
13/08:30pm 34.3 N 8 11 1007.3 - 0.0 - - - - - - -
13/08:00pm 34.8 NNW 8 10 1006.6 - 0.0 - - - - - - -
13/07:30pm 35.3 NNW 7 10 1006.5 - 0.0 - - - - - - -
13/07:00pm 35.9 N 9 12 1006.1 - 0.0 - - - - - - -
13/06:30pm 36.7 N 10 12 1005.9 - 0.0 - - - - - - -
13/06:00pm 37.8 N 7 9 1005.6 - 0.0 - - - - - - -
13/05:30pm 38.5 N 7 9 1005.6 - 0.0 - - - - - - -
13/05:00pm 37.5 NNE 12 18 1005.6 - 0.0 - - - - - - -
13/04:30pm 39.8 NE 9 14 1005.6 - 0.0 - - - - - - -
13/04:00pm 40.0 NNE 8 11 1005.6 - 0.0 - - - - - - -
13/03:30pm 38.9 N 10 14 1005.7 - 0.0 - - - - - - -
13/03:00pm 38.8 WNW 7 11 1006.0 - 0.0 - - - - - - -
13/02:30pm 38.9 WNW 7 11 1006.4 - 0.0 - - - - - - -
13/02:00pm 39.0 NW 6 11 1006.7 - 0.0 - - - - - - -
13/01:30pm 38.9 W 7 18 1007.1 - 0.0 - - - - - - -
13/01:00pm 38.4 SW 7 12 1007.7 - 0.0 - - - - - - -
13/12:30pm 38.1 W 6 9 1008.2 - 0.0 - - - - - - -
13/12:00pm 36.9 WSW 6 9 1008.5 - 0.0 - - - - - - -
13/11:30am 36.0 WSW 4 7 1008.9 - 0.0 - - - - - - -
13/11:00am 35.3 W 5 8 1009.2 - 0.0 - - - - - - -
13/10:30am 33.9 WSW 5 7 1009.6 - 0.6 - - - - - - -
13/10:00am 32.7 WSW 5 7 1009.9 - 0.6 - - - - - - -
13/09:30am 32.5 W 5 7 1009.9 - 0.6 - - - - - - -
13/09:00am 31.4 WSW 4 6 1009.9 - 0.6 - - - - - - -
13/08:30am 30.4 SSW 4 5 1009.6 - 0.6 - - - - - - -
13/08:00am 29.8 WSW 3 4 1009.4 - 0.6 - - - - - - -
13/07:30am 29.3 WSW 4 5 1009.0 - 0.6 - - - - - - -
13/07:00am 28.9 SW 5 6 1008.7 - 0.6 - - - - - - -
13/06:30am 29.0 SW 7 9 1008.3 - 0.6 - - - - - - -
13/06:00am 29.1 WSW 4 6 1008.0 - 0.6 - - - - - - -
13/05:30am 29.2 WSW 3 4 1007.8 - 0.6 - - - - - - -
13/05:00am 29.4 WNW 4 5 1007.6 - 0.6 - - - - - - -
13/04:30am 29.3 WNW 4 4 1007.7 - 0.6 - - - - - - -
13/04:00am 29.0 WNW 5 6 1007.5 - 0.6 - - - - - - -
13/03:30am 29.1 W 4 7 1007.5 - 0.6 - - - - - - -
13/03:00am 29.4 CALM 0 0 1007.5 - 0.6 - - - - - - -
13/02:30am 29.5 CALM 0 0 1007.6 - 0.6 - - - - - - -
13/02:00am 29.6 CALM 0 0 1007.8 - 0.6 - - - - - - -
13/01:30am 29.7 CALM 0 0 1008.2 - 0.6 - - - - - - -
13/01:00am 29.5 CALM 0 0 1008.5 - 0.6 - - - - - - -
13/12:30am 29.8 CALM 0 0 1008.9 - 0.6 - - - - - - -
13/12:00am 29.7 NNW 1 3 1009.0 - 0.6 - - - - - - -
 
Date/Time
CST
Temp

°C
Wind Pressure Rain
since 9am
mm
Weather Cloud Vis
km
Sea
Height
m
Swell
Dir
 
Speed
knots
Gust
knots
hPa Trend Height
m
Period
s
Dir
12/11:30pm 29.7 NW 3 4 1009.0 - 0.6 - - - - - - -
12/11:00pm 29.3 NNW 4 5 1008.8 - 0.6 - - - - - - -
12/10:30pm 29.5 NW 5 6 1008.9 - 0.6 - - - - - - -
12/10:00pm 29.3 WNW 5 5 1008.9 - 0.6 - - - - - - -
12/09:30pm 29.4 SSW 7 9 1008.5 - 0.6 - - - - - - -
12/09:00pm 29.9 SSW 10 14 1008.3 - 0.6 - - - - - - -
12/08:30pm 30.6 SE 12 17 1007.9 - 0.6 - - - - - - -
12/08:00pm 30.5 N 12 19 1007.1 - 0.6 - - - - - - -
12/07:30pm 29.8 N 15 22 1006.7 - 0.6 - - - - - - -
12/07:00pm 29.2 NNW 12 16 1006.7 - 0.6 - - - - - - -
12/06:30pm 29.3 N 16 21 1006.1 - 0.6 - - - - - - -
12/06:00pm 29.5 N 13 16 1005.6 - 0.6 - - - - - - -
12/05:30pm 28.4 N 13 19 1005.1 - 0.6 - - - - - - -
12/05:08pm 28.5 N 18 29 1005.2 - 0.2 - - - - - - -
12/05:00pm 31.7 N 15 21 1004.8 - 0.0 - - - - - - -
12/04:30pm 33.2 NE 13 24 1004.7 - 0.0 - - - - - - -
12/04:10pm 37.4 NE 12 28 1004.4 - 0.0 - - - - - - -
12/04:00pm 40.4 NE 12 17 1004.2 - 0.0 - - - - - - -
12/03:42pm 38.8 ENE 15 25 1004.4 - 0.0 - - - - - - -
12/03:30pm 40.5 NE 11 18 1004.5 - 0.0 - - - - - - -
12/03:00pm 39.8 NE 13 19 1005.0 - 0.0 - - - - - - -
12/02:30pm 39.3 ENE 11 17 1005.5 - 0.0 - - - - - - -
12/02:00pm 39.1 ESE 8 14 1005.8 - 0.0 - - - - - - -
12/01:30pm 38.7 E 9 15 1006.3 - 0.0 - - - - - - -
12/01:00pm 39.0 E 8 14 1006.7 - 0.0 - - - - - - -
12/12:30pm 38.6 SE 8 14 1006.9 - 0.0 - - - - - - -
12/12:00pm 37.7 ENE 5 11 1007.5 - 0.0 - - - - - - -
12/11:30am 37.2 SE 5 8 1008.0 - 0.0 - - - - - - -
12/11:00am 36.2 CALM 0 0 1008.3 - 0.0 - - - - - - -
12/10:30am 34.9 CALM 0 0 1008.5 - 0.6 - - - - - - -
12/10:00am 33.3 CALM 0 0 1008.7 - 0.6 - - - - - - -
12/09:30am 32.6 S 3 5 1008.7 - 0.6 - - - - - - -
12/09:00am 31.6 WSW 5 6 1008.5 - 0.6 - - - - - - -
12/08:30am 30.8 WNW 3 4 1008.3 - 0.6 - - - - - - -
12/08:00am 29.4 CALM 0 0 1008.3 - 0.6 - - - - - - -
12/07:30am 27.5 ENE 5 5 1008.2 - 0.6 - - - - - - -
12/07:00am 26.8 ESE 7 8 1008.1 - 0.6 - - - - - - -
12/06:30am 26.7 ESE 9 10 1007.8 - 0.6 - - - - - - -

Other Formats:

Comma delimited format used in spreadsheet applications
http://www.bom.gov.au/fwo/IDD60701/IDD60701.95214.axf

JavaScript Object Notation format (JSON) in row-major order
http://www.bom.gov.au/fwo/IDD60701/IDD60701.95214.json